createdAt,value
2022-09-15T00:00:06.769Z,1.50
2022-09-15T00:02:33.511Z,1.50
2022-09-15T00:05:00.770Z,1.50
2022-09-15T00:07:27.622Z,1.58
2022-09-15T00:09:54.283Z,1.70
2022-09-15T00:12:20.896Z,1.90
2022-09-15T00:14:47.561Z,1.90
2022-09-15T00:17:14.275Z,1.45
2022-09-15T00:19:40.960Z,1.38
2022-09-15T00:22:07.622Z,1.70
2022-09-15T00:24:34.338Z,1.70
2022-09-15T00:27:00.966Z,1.80
2022-09-15T00:29:27.683Z,2.10
2022-09-15T00:31:54.365Z,2.45
2022-09-15T00:34:21.020Z,2.20
2022-09-15T00:36:47.632Z,2.28
2022-09-15T00:39:14.259Z,2.17
2022-09-15T00:41:41.463Z,2.25
2022-09-15T00:44:20.010Z,2.25
2022-09-15T00:47:09.346Z,2.67
2022-09-15T00:49:39.025Z,2.83
2022-09-15T00:52:09.930Z,2.60
2022-09-15T00:54:48.742Z,2.50
2022-09-15T00:57:24.607Z,2.25
2022-09-15T00:59:53.338Z,2.50
2022-09-15T01:02:24.206Z,2.40
2022-09-15T01:04:58.340Z,2.47
2022-09-15T01:08:00.048Z,2.55
2022-09-15T01:10:32.606Z,2.60
2022-09-15T01:13:02.779Z,2.47
2022-09-15T01:15:49.474Z,2.50
2022-09-15T01:19:00.829Z,2.90
2022-09-15T01:21:33.325Z,2.60
2022-09-15T01:24:36.729Z,2.60
2022-09-15T01:27:37.840Z,2.60
2022-09-15T01:30:01.387Z,3.10
2022-09-15T01:32:50.485Z,3.17
2022-09-15T01:35:17.123Z,2.58
2022-09-15T01:37:50.568Z,2.72
2022-09-15T01:40:21.843Z,2.60
2022-09-15T01:42:50.964Z,2.88
2022-09-15T01:45:26.000Z,2.80
2022-09-15T01:47:55.159Z,3.20
2022-09-15T01:50:28.476Z,2.97
2022-09-15T01:52:57.722Z,2.70
2022-09-15T01:55:30.983Z,3.35
2022-09-15T01:57:59.344Z,2.90
2022-09-15T02:00:26.037Z,2.50
2022-09-15T02:03:01.071Z,2.42
2022-09-15T02:05:52.074Z,2.60
2022-09-15T02:08:52.324Z,2.58
2022-09-15T02:11:23.917Z,2.53
2022-09-15T02:14:11.421Z,2.40
2022-09-15T02:16:41.647Z,2.50
2022-09-15T02:19:33.283Z,2.30
2022-09-15T02:22:24.389Z,2.35
2022-09-15T02:25:04.979Z,2.40
2022-09-15T02:27:37.721Z,2.17
2022-09-15T02:30:11.689Z,2.10
2022-09-15T02:32:46.581Z,2.28
2022-09-15T02:35:14.417Z,2.20
2022-09-15T02:37:41.773Z,2.15
2022-09-15T02:40:09.073Z,2.10
2022-09-15T02:42:36.156Z,1.88
2022-09-15T02:45:03.149Z,2.58
2022-09-15T02:47:30.045Z,2.17
2022-09-15T02:49:57.075Z,2.10
2022-09-15T02:52:24.085Z,1.95
2022-09-15T02:54:50.704Z,2.03
2022-09-15T02:57:17.447Z,1.85
2022-09-15T03:00:02.638Z,1.80
2022-09-15T03:02:29.657Z,1.85
2022-09-15T03:04:56.430Z,2.55
2022-09-15T03:07:23.427Z,2.15
2022-09-15T03:09:50.323Z,2.75
2022-09-15T03:12:17.638Z,2.33
2022-09-15T03:14:44.486Z,2.55
2022-09-15T03:17:11.184Z,2.17
2022-09-15T03:19:38.148Z,2.25
2022-09-15T03:22:04.999Z,2.05
2022-09-15T03:24:31.678Z,1.88
2022-09-15T03:26:58.303Z,1.80
2022-09-15T03:31:51.737Z,1.67
2022-09-15T03:34:18.527Z,1.70
2022-09-15T03:36:45.131Z,1.60
2022-09-15T03:39:12.781Z,1.88
2022-09-15T03:41:39.472Z,1.77
2022-09-15T03:44:06.258Z,1.65
2022-09-15T03:46:32.993Z,1.60
2022-09-15T03:48:59.629Z,1.50
2022-09-15T03:51:26.254Z,1.52
2022-09-15T03:53:53.037Z,1.55
2022-09-15T03:56:32.531Z,1.80
2022-09-15T03:59:01.649Z,1.60
2022-09-15T04:01:29.253Z,1.30
2022-09-15T04:03:56.102Z,1.40
2022-09-15T04:06:23.250Z,1.88
2022-09-15T04:08:50.917Z,1.50
2022-09-15T04:11:19.050Z,1.45
2022-09-15T04:13:46.276Z,1.35
2022-09-15T04:16:16.496Z,1.48
2022-09-15T04:18:43.271Z,1.33
2022-09-15T04:21:15.640Z,1.20
2022-09-15T04:23:43.574Z,1.13
2022-09-15T04:26:31.354Z,1.30
2022-09-15T04:29:02.996Z,1.35
2022-09-15T04:31:30.788Z,1.15
2022-09-15T04:33:57.606Z,1.48
2022-09-15T04:36:27.304Z,1.30
2022-09-15T04:38:55.141Z,1.48
2022-09-15T04:41:22.610Z,1.30
2022-09-15T04:43:49.987Z,1.35
2022-09-15T04:46:17.528Z,1.30
2022-09-15T04:48:48.838Z,1.40
2022-09-15T04:51:19.563Z,1.30
2022-09-15T04:53:46.852Z,1.30
2022-09-15T04:56:18.916Z,1.25
2022-09-15T04:59:03.204Z,1.20
2022-09-15T05:01:32.299Z,1.33
2022-09-15T05:04:00.671Z,1.50
2022-09-15T05:06:28.114Z,1.27
2022-09-15T05:08:57.040Z,1.20
2022-09-15T05:11:24.885Z,1.25
2022-09-15T05:13:51.841Z,1.23
2022-09-15T05:16:24.385Z,1.38
2022-09-15T05:18:53.676Z,1.23
2022-09-15T05:21:22.653Z,1.33
2022-09-15T05:23:51.762Z,1.27
2022-09-15T05:26:23.854Z,1.38
2022-09-15T05:28:50.566Z,1.30
2022-09-15T05:31:20.325Z,1.20
2022-09-15T05:33:48.869Z,1.20
2022-09-15T05:36:17.227Z,1.23
2022-09-15T05:38:44.732Z,1.15
2022-09-15T05:41:14.079Z,1.20
2022-09-15T05:43:40.727Z,1.33
2022-09-15T05:46:08.050Z,1.73
2022-09-15T05:48:34.938Z,1.75
2022-09-15T05:51:02.152Z,1.60
2022-09-15T05:53:29.024Z,1.38
2022-09-15T05:55:59.909Z,1.52
2022-09-15T05:58:26.979Z,1.40
2022-09-15T06:00:54.390Z,1.30
2022-09-15T06:03:21.910Z,1.48
2022-09-15T06:05:48.677Z,1.17
2022-09-15T06:08:15.719Z,1.27
2022-09-15T06:10:42.610Z,1.20
2022-09-15T06:13:09.230Z,1.00
2022-09-15T06:15:35.970Z,1.33
2022-09-15T06:18:02.751Z,1.20
2022-09-15T06:20:29.380Z,1.10
2022-09-15T06:22:56.665Z,1.13
2022-09-15T06:25:23.424Z,1.20
2022-09-15T06:27:50.570Z,1.30
2022-09-15T06:30:17.870Z,1.10
2022-09-15T06:32:48.044Z,1.35
2022-09-15T06:35:15.669Z,1.50
2022-09-15T06:37:42.287Z,1.00
2022-09-15T06:40:10.030Z,1.17
2022-09-15T06:42:36.761Z,0.85
2022-09-15T06:45:04.241Z,0.90
2022-09-15T06:47:33.884Z,1.10
2022-09-15T06:50:01.115Z,1.20
2022-09-15T06:52:27.863Z,0.93
2022-09-15T06:54:54.593Z,1.30
2022-09-15T06:57:21.248Z,1.08
2022-09-15T06:59:47.892Z,1.00
2022-09-15T07:02:14.622Z,1.05
2022-09-15T07:04:41.363Z,1.02
2022-09-15T07:07:08.057Z,1.00
2022-09-15T07:09:34.699Z,1.20
2022-09-15T07:12:01.583Z,1.15
2022-09-15T07:14:28.281Z,1.40
2022-09-15T07:16:55.039Z,1.17
2022-09-15T07:19:21.727Z,1.30
2022-09-15T07:21:48.394Z,1.05
2022-09-15T07:24:15.212Z,1.02
2022-09-15T07:26:41.948Z,0.88
2022-09-15T07:29:09.764Z,1.42
2022-09-15T07:31:38.491Z,1.23
2022-09-15T07:34:05.962Z,1.35
2022-09-15T07:36:32.894Z,0.98
2022-09-15T07:38:59.537Z,1.25
2022-09-15T07:41:28.820Z,1.10
2022-09-15T07:43:58.219Z,1.20
2022-09-15T07:46:26.727Z,1.05
2022-09-15T07:48:57.126Z,1.30
2022-09-15T07:51:24.763Z,0.80
2022-09-15T07:53:52.222Z,0.85
2022-09-15T07:56:20.394Z,0.90
2022-09-15T07:58:48.723Z,1.00
2022-09-15T08:01:16.696Z,0.70
2022-09-15T08:03:51.833Z,0.82
2022-09-15T08:06:20.542Z,0.93
2022-09-15T08:08:47.330Z,0.93
2022-09-15T08:11:19.078Z,1.00
2022-09-15T08:13:50.900Z,1.00
2022-09-15T08:16:22.958Z,0.70
2022-09-15T08:18:51.706Z,0.80
2022-09-15T08:21:20.314Z,0.70
2022-09-15T08:23:55.833Z,1.00
2022-09-15T08:26:23.243Z,0.60
2022-09-15T08:28:49.941Z,0.88
2022-09-15T08:31:17.649Z,0.98
2022-09-15T08:33:51.782Z,1.00
2022-09-15T08:36:19.134Z,1.05
2022-09-15T08:38:46.499Z,1.05
2022-09-15T08:41:22.418Z,1.33
2022-09-15T08:44:02.440Z,0.80
2022-09-15T08:46:39.864Z,1.40
2022-09-15T08:49:47.416Z,0.95
2022-09-15T08:52:20.197Z,1.10
2022-09-15T08:54:46.967Z,1.13
2022-09-15T08:57:21.658Z,0.88
2022-09-15T08:59:48.365Z,1.00
2022-09-15T09:02:33.912Z,1.02
2022-09-15T09:05:21.744Z,0.88
2022-09-15T09:08:06.716Z,0.90
2022-09-15T09:10:52.426Z,1.00
2022-09-15T09:13:53.953Z,0.70
2022-09-15T09:16:50.848Z,1.13
2022-09-15T09:19:50.053Z,0.95
2022-09-15T09:22:20.536Z,0.90
2022-09-15T09:24:53.520Z,0.93
2022-09-15T09:27:27.056Z,0.80
2022-09-15T09:30:02.587Z,1.00
2022-09-15T09:32:54.408Z,0.80
2022-09-15T09:35:36.179Z,0.93
2022-09-15T09:38:03.208Z,0.70
2022-09-15T09:40:31.517Z,0.80
2022-09-15T09:43:00.032Z,1.10
2022-09-15T09:45:26.931Z,1.10
2022-09-15T09:48:01.621Z,0.90
2022-09-15T09:50:38.687Z,0.90
2022-09-15T09:53:17.658Z,0.80
2022-09-15T09:55:45.831Z,0.77
2022-09-15T09:58:17.648Z,0.90
2022-09-15T10:00:44.361Z,1.10
2022-09-15T10:03:18.091Z,0.70
2022-09-15T10:05:45.980Z,0.95
2022-09-15T10:08:17.774Z,0.88
2022-09-15T10:10:56.687Z,1.02
2022-09-15T10:13:23.395Z,0.90
2022-09-15T10:15:56.570Z,1.23
2022-09-15T10:18:36.292Z,1.15
2022-09-15T10:21:05.713Z,0.90
2022-09-15T10:23:34.134Z,1.17
2022-09-15T10:26:29.255Z,0.95
2022-09-15T10:29:17.260Z,1.00
2022-09-15T10:31:45.501Z,1.58
2022-09-15T10:34:24.227Z,1.30
2022-09-15T10:37:03.367Z,1.00
2022-09-15T10:39:36.160Z,0.90
2022-09-15T10:42:18.114Z,1.00
2022-09-15T10:44:56.629Z,0.93
2022-09-15T10:47:33.785Z,1.05
2022-09-15T10:50:13.463Z,1.35
2022-09-15T10:52:57.453Z,0.85
2022-09-15T10:55:52.919Z,1.00
2022-09-15T10:58:32.323Z,1.13
2022-09-15T11:04:02.901Z,1.30
2022-09-15T11:06:35.369Z,1.20
2022-09-15T11:09:17.139Z,1.00
2022-09-15T11:11:58.495Z,1.27
2022-09-15T11:14:55.088Z,1.08
2022-09-15T11:17:36.924Z,1.15
2022-09-15T11:20:25.291Z,0.93
2022-09-15T11:23:04.016Z,1.00
2022-09-15T11:25:35.568Z,0.88
2022-09-15T11:28:38.764Z,1.50
2022-09-15T11:31:20.188Z,1.10
2022-09-15T11:34:03.044Z,1.17
2022-09-15T11:36:52.126Z,1.08
2022-09-15T11:39:28.082Z,1.00
2022-09-15T11:42:15.617Z,1.13
2022-09-15T11:44:45.115Z,1.00
2022-09-15T11:47:24.908Z,0.80
2022-09-15T11:50:18.222Z,1.27
2022-09-15T11:53:17.330Z,0.80
2022-09-15T11:55:59.866Z,0.90
2022-09-15T11:58:44.626Z,0.73
2022-09-15T12:01:11.214Z,0.77
2022-09-15T12:03:52.679Z,0.80
2022-09-15T12:06:28.307Z,0.60
2022-09-15T12:09:00.894Z,0.50
2022-09-15T12:13:59.370Z,0.88
2022-09-15T12:16:27.482Z,0.80
2022-09-15T12:19:41.077Z,0.60
2022-09-15T12:22:34.041Z,1.45
2022-09-15T12:25:22.158Z,0.70
2022-09-15T12:28:23.080Z,1.00
2022-09-15T12:31:10.750Z,0.70
2022-09-15T12:33:43.503Z,0.70
2022-09-15T12:36:39.941Z,0.75
2022-09-15T12:39:26.118Z,0.60
2022-09-15T12:41:55.519Z,0.88
2022-09-15T12:44:48.439Z,1.42
2022-09-15T12:47:35.420Z,1.67
2022-09-15T12:50:08.587Z,1.40
2022-09-15T12:52:59.270Z,1.65
2022-09-15T12:55:37.533Z,1.20
2022-09-15T12:58:10.586Z,0.90
2022-09-15T13:01:06.830Z,1.02
2022-09-15T13:06:21.157Z,1.10
2022-09-15T13:09:03.748Z,1.10
2022-09-15T13:11:34.476Z,1.15
2022-09-15T13:14:06.529Z,1.08
2022-09-15T13:16:48.109Z,1.27
2022-09-15T13:19:33.596Z,0.90
2022-09-15T13:22:27.254Z,0.90
2022-09-15T13:25:05.903Z,1.00
2022-09-15T13:27:39.485Z,0.80
2022-09-15T13:30:21.499Z,0.80
2022-09-15T13:32:54.067Z,0.90
2022-09-15T13:35:51.648Z,1.00
2022-09-15T13:38:32.323Z,0.88
2022-09-15T13:41:18.490Z,1.00
2022-09-15T13:44:07.029Z,1.20
2022-09-15T13:46:33.730Z,1.05
2022-09-15T13:49:27.786Z,1.35
2022-09-15T13:52:01.601Z,1.10
2022-09-15T13:54:28.342Z,1.13
2022-09-15T13:57:00.928Z,0.98
2022-09-15T14:01:59.023Z,0.90
2022-09-15T14:04:31.389Z,1.13
2022-09-15T14:07:01.440Z,1.20
2022-09-15T14:09:34.031Z,1.20
2022-09-15T14:12:09.514Z,1.20
2022-09-15T14:14:40.088Z,1.17
2022-09-15T14:17:22.536Z,0.93
2022-09-15T14:19:51.591Z,1.05
2022-09-15T14:22:18.395Z,0.70
2022-09-15T14:24:45.160Z,0.60
2022-09-15T14:27:12.906Z,0.93
2022-09-15T14:29:42.214Z,0.70
2022-09-15T14:32:14.317Z,0.80
2022-09-15T14:34:42.157Z,0.90
2022-09-15T14:37:20.406Z,0.82
2022-09-15T14:39:51.534Z,0.73
2022-09-15T14:42:22.608Z,0.85
2022-09-15T14:47:39.773Z,0.90
2022-09-15T14:50:19.585Z,1.20
2022-09-15T14:53:02.971Z,1.30
2022-09-15T14:55:52.828Z,1.10
2022-09-15T14:58:22.464Z,1.00
2022-09-15T15:00:54.577Z,0.90
2022-09-15T15:03:42.779Z,1.10
2022-09-15T15:06:35.619Z,1.00
2022-09-15T15:09:34.375Z,0.73
2022-09-15T15:12:07.145Z,1.00
2022-09-15T15:14:35.596Z,1.05
2022-09-15T15:17:05.973Z,0.90
2022-09-15T15:19:41.168Z,0.80
2022-09-15T15:22:13.874Z,0.93
2022-09-15T15:27:43.522Z,1.17
2022-09-15T15:30:31.546Z,1.10
2022-09-15T15:33:00.726Z,1.25
2022-09-15T15:35:28.124Z,1.30
2022-09-15T15:38:09.473Z,1.35
2022-09-15T15:40:38.955Z,1.20
2022-09-15T15:43:28.851Z,1.25
2022-09-15T15:46:01.319Z,1.40
2022-09-15T15:48:37.370Z,0.88
2022-09-15T15:51:04.856Z,0.90
2022-09-15T15:53:31.569Z,0.90
2022-09-15T15:55:59.607Z,0.90
2022-09-15T15:58:27.134Z,1.17
2022-09-15T16:00:56.411Z,0.80
2022-09-15T16:03:24.492Z,0.85
2022-09-15T16:05:53.642Z,0.98
2022-09-15T16:08:22.956Z,0.82
2022-09-15T16:10:50.801Z,0.90
2022-09-15T16:13:19.519Z,0.75
2022-09-15T16:15:46.749Z,0.98
2022-09-15T16:18:13.806Z,0.90
2022-09-15T16:20:41.397Z,1.00
2022-09-15T16:23:13.892Z,0.70
2022-09-15T16:25:44.710Z,0.60
2022-09-15T16:28:11.461Z,0.60
2022-09-15T16:30:38.107Z,0.70
2022-09-15T16:33:05.026Z,0.60
2022-09-15T16:35:39.458Z,1.00
2022-09-15T16:38:07.519Z,0.80
2022-09-15T16:40:34.681Z,0.80
2022-09-15T16:43:02.154Z,1.20
2022-09-15T16:45:39.799Z,1.00
2022-09-15T16:48:08.444Z,1.10
2022-09-15T16:50:35.739Z,1.10
2022-09-15T16:53:02.840Z,1.45
2022-09-15T16:55:45.839Z,0.85
2022-09-15T16:58:14.437Z,0.90
2022-09-15T17:00:42.539Z,1.00
2022-09-15T17:03:14.640Z,0.73
2022-09-15T17:05:48.537Z,0.60
2022-09-15T17:08:16.695Z,0.85
2022-09-15T17:10:43.773Z,1.05
2022-09-15T17:13:16.278Z,0.80
2022-09-15T17:15:43.605Z,1.00
2022-09-15T17:18:13.277Z,0.95
2022-09-15T17:20:39.958Z,1.23
2022-09-15T17:23:18.918Z,1.00
2022-09-15T17:25:51.856Z,0.90
2022-09-15T17:28:23.418Z,0.90
2022-09-15T17:30:51.999Z,0.80
2022-09-15T17:33:20.180Z,0.60
2022-09-15T17:35:48.040Z,0.95
2022-09-15T17:38:15.427Z,1.00
2022-09-15T17:40:42.770Z,1.17
2022-09-15T17:43:15.916Z,1.15
2022-09-15T17:45:43.416Z,1.17
2022-09-15T17:48:10.540Z,1.05
2022-09-15T17:50:38.100Z,1.08
2022-09-15T17:53:23.384Z,0.65
2022-09-15T17:55:50.923Z,1.10
2022-09-15T17:58:18.300Z,0.80
2022-09-15T18:00:45.838Z,0.80
2022-09-15T18:03:33.195Z,0.95
2022-09-15T18:06:01.289Z,0.63
2022-09-15T18:08:28.075Z,0.80
2022-09-15T18:10:55.118Z,0.73
2022-09-15T18:13:24.396Z,0.70
2022-09-15T18:15:51.170Z,1.10
2022-09-15T18:18:21.051Z,0.80
2022-09-15T18:20:49.745Z,1.08
2022-09-15T18:23:21.384Z,1.40
2022-09-15T18:25:48.935Z,1.02
2022-09-15T18:28:16.227Z,1.25
2022-09-15T18:30:45.520Z,0.70
2022-09-15T18:33:21.175Z,0.70
2022-09-15T18:35:49.639Z,0.75
2022-09-15T18:38:17.331Z,1.00
2022-09-15T18:40:53.311Z,1.05
2022-09-15T18:43:21.194Z,0.88
2022-09-15T18:45:48.240Z,0.80
2022-09-15T18:48:15.472Z,0.75
2022-09-15T18:50:44.303Z,0.80
2022-09-15T18:53:11.306Z,0.82
2022-09-15T18:55:41.445Z,1.00
2022-09-15T18:58:08.768Z,1.15
2022-09-15T19:00:35.794Z,0.88
2022-09-15T19:03:05.142Z,0.90
2022-09-15T19:05:32.635Z,0.80
2022-09-15T19:07:59.343Z,0.80
2022-09-15T19:10:29.360Z,1.25
2022-09-15T19:12:55.988Z,1.50
2022-09-15T19:15:24.065Z,1.50
2022-09-15T19:17:51.233Z,1.20
2022-09-15T19:20:17.979Z,1.38
2022-09-15T19:22:44.680Z,1.00
2022-09-15T19:25:12.122Z,1.15
2022-09-15T19:27:39.560Z,0.90
2022-09-15T19:30:09.810Z,1.45
2022-09-15T19:32:37.642Z,0.80
2022-09-15T19:35:04.554Z,1.10
2022-09-15T19:37:31.223Z,1.10
2022-09-15T19:39:57.925Z,1.15
2022-09-15T19:42:24.665Z,0.80
2022-09-15T19:44:51.360Z,1.00
2022-09-15T19:47:18.002Z,1.10
2022-09-15T19:49:44.614Z,1.08
2022-09-15T19:52:12.705Z,1.10
2022-09-15T19:54:39.387Z,0.82
2022-09-15T19:57:06.024Z,0.90
2022-09-15T19:59:32.720Z,0.90
2022-09-15T20:02:00.621Z,1.20
2022-09-15T20:04:28.331Z,1.05
2022-09-15T20:06:55.031Z,0.90
2022-09-15T20:09:22.067Z,1.02
2022-09-15T20:11:48.724Z,1.42
2022-09-15T20:14:15.755Z,1.20
2022-09-15T20:16:42.697Z,1.30
2022-09-15T20:19:09.444Z,1.23
2022-09-15T20:21:54.053Z,1.23
2022-09-15T20:24:22.175Z,1.13
2022-09-15T20:26:49.176Z,1.40
2022-09-15T20:29:16.194Z,1.20
2022-09-15T20:31:43.868Z,0.98
2022-09-15T20:34:10.758Z,1.33
2022-09-15T20:36:38.864Z,1.10
2022-09-15T20:39:09.236Z,1.17
2022-09-15T20:41:36.898Z,0.95
2022-09-15T20:44:05.165Z,1.35
2022-09-15T20:46:31.913Z,1.40
2022-09-15T20:48:58.607Z,0.98
2022-09-15T20:51:29.388Z,1.00
2022-09-15T20:53:57.727Z,1.17
2022-09-15T20:56:26.515Z,1.13
2022-09-15T20:58:54.995Z,1.23
2022-09-15T21:01:24.236Z,0.90
2022-09-15T21:03:51.036Z,1.00
2022-09-15T21:06:20.571Z,0.80
2022-09-15T21:08:48.429Z,1.30
2022-09-15T21:11:16.649Z,0.90
2022-09-15T21:13:44.256Z,1.10
2022-09-15T21:16:15.020Z,1.13
2022-09-15T21:18:43.349Z,1.23
2022-09-15T21:21:31.734Z,1.00
2022-09-15T21:24:03.486Z,0.95
2022-09-15T21:26:33.144Z,1.13
2022-09-15T21:29:00.366Z,1.30
2022-09-15T21:31:32.097Z,1.20
2022-09-15T21:33:59.696Z,1.13
2022-09-15T21:36:29.421Z,1.20
2022-09-15T21:38:58.187Z,0.95
2022-09-15T21:41:29.618Z,1.48
2022-09-15T21:43:58.100Z,1.10
2022-09-15T21:46:27.549Z,1.17
2022-09-15T21:48:55.799Z,1.17
2022-09-15T21:51:25.037Z,1.00
2022-09-15T21:53:56.656Z,1.10
2022-09-15T21:56:24.255Z,0.90
2022-09-15T21:58:50.942Z,1.00
2022-09-15T22:01:23.317Z,1.00
2022-09-15T22:04:01.805Z,1.23
2022-09-15T22:06:31.782Z,1.00
2022-09-15T22:09:00.479Z,0.82
2022-09-15T22:11:27.242Z,1.00
2022-09-15T22:13:53.940Z,1.65
2022-09-15T22:16:22.972Z,1.00
2022-09-15T22:18:50.669Z,1.13
2022-09-15T22:21:26.101Z,1.20
2022-09-15T22:23:55.240Z,1.23
2022-09-15T22:26:25.658Z,1.05
2022-09-15T22:28:53.010Z,1.08
2022-09-15T22:31:20.947Z,1.20
2022-09-15T22:33:48.113Z,1.27
2022-09-15T22:36:17.268Z,1.20
2022-09-15T22:38:44.056Z,1.10
2022-09-15T22:41:13.079Z,1.13
2022-09-15T22:43:41.596Z,1.27
2022-09-15T22:46:08.804Z,1.00
2022-09-15T22:48:39.674Z,1.00
2022-09-15T22:51:09.639Z,1.00
2022-09-15T22:53:36.401Z,1.15
2022-09-15T22:56:10.085Z,1.00
2022-09-15T22:58:40.857Z,1.00
2022-09-15T23:01:12.115Z,1.15
2022-09-15T23:03:39.203Z,0.90
2022-09-15T23:06:07.651Z,1.20
2022-09-15T23:08:34.939Z,1.48
2022-09-15T23:11:02.709Z,1.10
2022-09-15T23:13:29.560Z,1.33
2022-09-15T23:15:56.235Z,1.00
2022-09-15T23:18:23.142Z,0.90
2022-09-15T23:20:56.580Z,0.90
2022-09-15T23:23:23.284Z,1.00
2022-09-15T23:25:49.986Z,0.98
2022-09-15T23:28:16.616Z,1.08
2022-09-15T23:33:09.839Z,0.93
2022-09-15T23:35:36.644Z,0.90
2022-09-15T23:38:03.285Z,1.05
2022-09-15T23:42:56.553Z,1.00
2022-09-15T23:47:49.770Z,0.80
2022-09-15T23:50:16.502Z,1.00
2022-09-15T23:52:43.172Z,1.15
2022-09-15T23:55:10.613Z,1.02
2022-09-15T23:57:37.299Z,0.85
